sensor_id;sensor_type;location;lat;lon;timestamp;P1;durP1;ratioP1;P2;durP2;ratioP2
21697;SDS011;11010;49.548;11.926;2023-08-08T00:01:42;6.77;;;1.70;;
21697;SDS011;11010;49.548;11.926;2023-08-08T00:04:09;5.13;;;1.47;;
21697;SDS011;11010;49.548;11.926;2023-08-08T00:06:37;7.10;;;1.60;;
21697;SDS011;11010;49.548;11.926;2023-08-08T00:09:04;6.37;;;1.70;;
21697;SDS011;11010;49.548;11.926;2023-08-08T00:11:33;7.47;;;1.80;;
21697;SDS011;11010;49.548;11.926;2023-08-08T00:14:00;6.90;;;1.57;;
21697;SDS011;11010;49.548;11.926;2023-08-08T00:16:27;7.40;;;2.00;;
21697;SDS011;11010;49.548;11.926;2023-08-08T00:18:55;6.80;;;1.67;;
21697;SDS011;11010;49.548;11.926;2023-08-08T00:21:22;7.23;;;2.10;;
21697;SDS011;11010;49.548;11.926;2023-08-08T00:23:49;8.00;;;1.80;;
21697;SDS011;11010;49.548;11.926;2023-08-08T00:26:17;6.47;;;1.67;;
21697;SDS011;11010;49.548;11.926;2023-08-08T00:28:44;6.43;;;1.80;;
21697;SDS011;11010;49.548;11.926;2023-08-08T00:31:12;7.70;;;1.70;;
21697;SDS011;11010;49.548;11.926;2023-08-08T00:33:39;6.07;;;1.60;;
21697;SDS011;11010;49.548;11.926;2023-08-08T00:36:06;8.57;;;2.03;;
21697;SDS011;11010;49.548;11.926;2023-08-08T00:38:34;7.43;;;2.00;;
21697;SDS011;11010;49.548;11.926;2023-08-08T00:41:01;6.70;;;1.77;;
21697;SDS011;11010;49.548;11.926;2023-08-08T00:43:31;7.63;;;2.00;;
21697;SDS011;11010;49.548;11.926;2023-08-08T00:45:58;6.27;;;1.80;;
21697;SDS011;11010;49.548;11.926;2023-08-08T00:48:26;6.50;;;1.90;;
21697;SDS011;11010;49.548;11.926;2023-08-08T00:50:53;8.43;;;1.97;;
21697;SDS011;11010;49.548;11.926;2023-08-08T00:53:21;6.40;;;2.00;;
21697;SDS011;11010;49.548;11.926;2023-08-08T00:55:49;8.20;;;2.20;;
21697;SDS011;11010;49.548;11.926;2023-08-08T00:58:17;6.70;;;1.97;;
21697;SDS011;11010;49.548;11.926;2023-08-08T01:00:44;7.10;;;2.00;;
21697;SDS011;11010;49.548;11.926;2023-08-08T01:03:12;7.93;;;2.10;;
21697;SDS011;11010;49.548;11.926;2023-08-08T01:05:43;7.90;;;2.13;;
21697;SDS011;11010;49.548;11.926;2023-08-08T01:08:15;7.00;;;2.03;;
21697;SDS011;11010;49.548;11.926;2023-08-08T01:10:43;6.67;;;2.00;;
21697;SDS011;11010;49.548;11.926;2023-08-08T01:13:13;7.47;;;2.07;;
21697;SDS011;11010;49.548;11.926;2023-08-08T01:15:42;8.53;;;1.93;;
21697;SDS011;11010;49.548;11.926;2023-08-08T01:18:10;6.03;;;1.80;;
21697;SDS011;11010;49.548;11.926;2023-08-08T01:20:38;10.23;;;2.43;;
21697;SDS011;11010;49.548;11.926;2023-08-08T01:25:33;7.67;;;2.00;;
21697;SDS011;11010;49.548;11.926;2023-08-08T01:28:01;7.03;;;2.10;;
21697;SDS011;11010;49.548;11.926;2023-08-08T01:30:31;7.50;;;1.97;;
21697;SDS011;11010;49.548;11.926;2023-08-08T01:32:59;6.50;;;1.80;;
21697;SDS011;11010;49.548;11.926;2023-08-08T01:35:29;6.97;;;2.07;;
21697;SDS011;11010;49.548;11.926;2023-08-08T01:38:07;6.67;;;1.90;;
21697;SDS011;11010;49.548;11.926;2023-08-08T01:40:37;7.13;;;1.90;;
21697;SDS011;11010;49.548;11.926;2023-08-08T01:43:07;7.87;;;2.20;;
21697;SDS011;11010;49.548;11.926;2023-08-08T01:45:36;9.53;;;2.17;;
21697;SDS011;11010;49.548;11.926;2023-08-08T01:48:07;8.10;;;2.27;;
21697;SDS011;11010;49.548;11.926;2023-08-08T01:50:35;7.67;;;2.03;;
21697;SDS011;11010;49.548;11.926;2023-08-08T01:53:03;6.57;;;1.87;;
21697;SDS011;11010;49.548;11.926;2023-08-08T01:55:31;6.80;;;1.87;;
21697;SDS011;11010;49.548;11.926;2023-08-08T01:57:58;8.23;;;2.20;;
21697;SDS011;11010;49.548;11.926;2023-08-08T02:00:25;8.83;;;2.37;;
21697;SDS011;11010;49.548;11.926;2023-08-08T02:02:54;6.23;;;1.83;;
21697;SDS011;11010;49.548;11.926;2023-08-08T02:05:21;7.57;;;2.10;;
21697;SDS011;11010;49.548;11.926;2023-08-08T02:07:49;8.20;;;2.13;;
21697;SDS011;11010;49.548;11.926;2023-08-08T02:10:16;7.83;;;2.43;;
21697;SDS011;11010;49.548;11.926;2023-08-08T02:12:45;8.53;;;2.37;;
21697;SDS011;11010;49.548;11.926;2023-08-08T02:15:12;7.87;;;2.27;;
21697;SDS011;11010;49.548;11.926;2023-08-08T02:17:40;7.57;;;2.17;;
21697;SDS011;11010;49.548;11.926;2023-08-08T02:20:07;8.83;;;2.50;;
21697;SDS011;11010;49.548;11.926;2023-08-08T02:22:35;7.50;;;2.13;;
21697;SDS011;11010;49.548;11.926;2023-08-08T02:25:02;9.23;;;2.40;;
21697;SDS011;11010;49.548;11.926;2023-08-08T02:27:30;8.17;;;2.40;;
21697;SDS011;11010;49.548;11.926;2023-08-08T02:29:57;7.13;;;2.60;;
21697;SDS011;11010;49.548;11.926;2023-08-08T02:32:25;8.93;;;2.40;;
21697;SDS011;11010;49.548;11.926;2023-08-08T02:34:53;11.60;;;2.47;;
21697;SDS011;11010;49.548;11.926;2023-08-08T02:37:20;8.20;;;1.93;;
21697;SDS011;11010;49.548;11.926;2023-08-08T02:39:48;8.53;;;2.20;;
21697;SDS011;11010;49.548;11.926;2023-08-08T02:42:15;8.27;;;2.30;;
21697;SDS011;11010;49.548;11.926;2023-08-08T02:44:43;6.83;;;1.97;;
21697;SDS011;11010;49.548;11.926;2023-08-08T02:47:11;7.17;;;2.03;;
21697;SDS011;11010;49.548;11.926;2023-08-08T02:49:38;8.03;;;2.37;;
21697;SDS011;11010;49.548;11.926;2023-08-08T02:52:06;7.87;;;2.20;;
21697;SDS011;11010;49.548;11.926;2023-08-08T02:54:34;6.83;;;2.20;;
21697;SDS011;11010;49.548;11.926;2023-08-08T02:57:02;7.60;;;2.10;;
21697;SDS011;11010;49.548;11.926;2023-08-08T02:59:29;7.57;;;2.37;;
21697;SDS011;11010;49.548;11.926;2023-08-08T03:01:59;7.30;;;2.47;;
21697;SDS011;11010;49.548;11.926;2023-08-08T03:04:28;7.33;;;2.10;;
21697;SDS011;11010;49.548;11.926;2023-08-08T03:06:56;7.17;;;2.10;;
21697;SDS011;11010;49.548;11.926;2023-08-08T03:09:26;8.00;;;2.10;;
21697;SDS011;11010;49.548;11.926;2023-08-08T03:11:53;6.17;;;1.90;;
21697;SDS011;11010;49.548;11.926;2023-08-08T03:14:21;6.63;;;2.10;;
21697;SDS011;11010;49.548;11.926;2023-08-08T03:16:49;6.80;;;2.10;;
21697;SDS011;11010;49.548;11.926;2023-08-08T03:19:16;7.80;;;2.00;;
21697;SDS011;11010;49.548;11.926;2023-08-08T03:21:44;8.00;;;2.07;;
21697;SDS011;11010;49.548;11.926;2023-08-08T03:24:12;7.37;;;2.10;;
21697;SDS011;11010;49.548;11.926;2023-08-08T03:26:39;6.63;;;1.97;;
21697;SDS011;11010;49.548;11.926;2023-08-08T03:29:08;8.03;;;2.10;;
21697;SDS011;11010;49.548;11.926;2023-08-08T03:31:43;7.40;;;2.07;;
21697;SDS011;11010;49.548;11.926;2023-08-08T03:34:11;8.10;;;2.20;;
21697;SDS011;11010;49.548;11.926;2023-08-08T03:36:40;6.60;;;2.00;;
21697;SDS011;11010;49.548;11.926;2023-08-08T03:39:09;7.90;;;2.27;;
21697;SDS011;11010;49.548;11.926;2023-08-08T03:41:36;7.23;;;1.83;;
21697;SDS011;11010;49.548;11.926;2023-08-08T03:44:04;6.70;;;1.77;;
21697;SDS011;11010;49.548;11.926;2023-08-08T03:46:31;7.30;;;1.80;;
21697;SDS011;11010;49.548;11.926;2023-08-08T03:49:00;6.33;;;1.87;;
21697;SDS011;11010;49.548;11.926;2023-08-08T03:51:28;7.70;;;1.80;;
21697;SDS011;11010;49.548;11.926;2023-08-08T03:53:56;6.70;;;2.00;;
21697;SDS011;11010;49.548;11.926;2023-08-08T03:56:23;7.50;;;2.00;;
21697;SDS011;11010;49.548;11.926;2023-08-08T03:58:52;6.77;;;1.97;;
21697;SDS011;11010;49.548;11.926;2023-08-08T04:01:20;7.53;;;2.00;;
21697;SDS011;11010;49.548;11.926;2023-08-08T04:03:48;6.70;;;2.00;;
21697;SDS011;11010;49.548;11.926;2023-08-08T04:06:15;6.73;;;1.90;;
21697;SDS011;11010;49.548;11.926;2023-08-08T04:08:42;8.40;;;2.00;;
21697;SDS011;11010;49.548;11.926;2023-08-08T04:11:11;7.10;;;1.87;;
21697;SDS011;11010;49.548;11.926;2023-08-08T04:13:38;6.07;;;1.70;;
21697;SDS011;11010;49.548;11.926;2023-08-08T04:16:06;6.70;;;1.90;;
21697;SDS011;11010;49.548;11.926;2023-08-08T04:18:35;6.97;;;1.77;;
21697;SDS011;11010;49.548;11.926;2023-08-08T04:21:02;7.10;;;2.03;;
21697;SDS011;11010;49.548;11.926;2023-08-08T04:23:30;6.83;;;2.00;;
21697;SDS011;11010;49.548;11.926;2023-08-08T04:25:57;7.40;;;2.10;;
21697;SDS011;11010;49.548;11.926;2023-08-08T04:28:25;6.67;;;1.80;;
21697;SDS011;11010;49.548;11.926;2023-08-08T04:30:52;8.07;;;2.03;;
21697;SDS011;11010;49.548;11.926;2023-08-08T04:33:20;8.63;;;1.90;;
21697;SDS011;11010;49.548;11.926;2023-08-08T04:35:47;6.37;;;1.83;;
21697;SDS011;11010;49.548;11.926;2023-08-08T04:38:14;7.17;;;1.60;;
21697;SDS011;11010;49.548;11.926;2023-08-08T04:40:42;5.80;;;1.70;;
21697;SDS011;11010;49.548;11.926;2023-08-08T04:43:09;6.80;;;1.77;;
21697;SDS011;11010;49.548;11.926;2023-08-08T04:45:37;7.73;;;1.97;;
21697;SDS011;11010;49.548;11.926;2023-08-08T04:48:04;6.23;;;1.70;;
21697;SDS011;11010;49.548;11.926;2023-08-08T04:50:32;6.60;;;1.80;;
21697;SDS011;11010;49.548;11.926;2023-08-08T04:52:59;7.73;;;1.90;;
21697;SDS011;11010;49.548;11.926;2023-08-08T04:55:27;7.27;;;1.77;;
21697;SDS011;11010;49.548;11.926;2023-08-08T04:57:54;6.67;;;1.80;;
21697;SDS011;11010;49.548;11.926;2023-08-08T05:00:22;6.50;;;1.80;;
21697;SDS011;11010;49.548;11.926;2023-08-08T05:02:49;6.53;;;1.60;;
21697;SDS011;11010;49.548;11.926;2023-08-08T05:05:17;6.33;;;1.60;;
21697;SDS011;11010;49.548;11.926;2023-08-08T05:07:44;6.17;;;1.73;;
21697;SDS011;11010;49.548;11.926;2023-08-08T05:10:12;6.80;;;1.93;;
21697;SDS011;11010;49.548;11.926;2023-08-08T05:12:40;5.90;;;1.60;;
21697;SDS011;11010;49.548;11.926;2023-08-08T05:15:07;7.90;;;1.83;;
21697;SDS011;11010;49.548;11.926;2023-08-08T05:17:35;6.73;;;1.93;;
21697;SDS011;11010;49.548;11.926;2023-08-08T05:20:02;7.50;;;2.03;;
21697;SDS011;11010;49.548;11.926;2023-08-08T05:22:30;7.77;;;1.80;;
21697;SDS011;11010;49.548;11.926;2023-08-08T05:24:57;8.73;;;1.60;;
21697;SDS011;11010;49.548;11.926;2023-08-08T05:27:25;6.27;;;1.73;;
21697;SDS011;11010;49.548;11.926;2023-08-08T05:29:52;7.80;;;1.93;;
21697;SDS011;11010;49.548;11.926;2023-08-08T05:32:20;5.87;;;1.50;;
21697;SDS011;11010;49.548;11.926;2023-08-08T05:34:47;5.73;;;1.50;;
21697;SDS011;11010;49.548;11.926;2023-08-08T05:37:15;6.60;;;1.70;;
21697;SDS011;11010;49.548;11.926;2023-08-08T05:39:43;6.27;;;1.70;;
21697;SDS011;11010;49.548;11.926;2023-08-08T05:42:11;6.50;;;1.67;;
21697;SDS011;11010;49.548;11.926;2023-08-08T05:44:39;5.53;;;1.40;;
21697;SDS011;11010;49.548;11.926;2023-08-08T05:47:08;5.80;;;1.33;;
21697;SDS011;11010;49.548;11.926;2023-08-08T05:49:35;6.47;;;1.50;;
21697;SDS011;11010;49.548;11.926;2023-08-08T05:52:03;5.80;;;1.50;;
21697;SDS011;11010;49.548;11.926;2023-08-08T05:54:30;5.53;;;1.50;;
21697;SDS011;11010;49.548;11.926;2023-08-08T05:56:58;5.47;;;1.40;;
21697;SDS011;11010;49.548;11.926;2023-08-08T05:59:25;6.03;;;1.60;;
21697;SDS011;11010;49.548;11.926;2023-08-08T06:01:53;5.60;;;1.60;;
21697;SDS011;11010;49.548;11.926;2023-08-08T06:04:20;6.07;;;1.50;;
21697;SDS011;11010;49.548;11.926;2023-08-08T06:06:48;5.87;;;1.47;;
21697;SDS011;11010;49.548;11.926;2023-08-08T06:09:15;6.57;;;1.50;;
21697;SDS011;11010;49.548;11.926;2023-08-08T06:11:43;6.83;;;1.40;;
21697;SDS011;11010;49.548;11.926;2023-08-08T06:14:11;5.93;;;1.80;;
21697;SDS011;11010;49.548;11.926;2023-08-08T06:16:38;6.30;;;1.50;;
21697;SDS011;11010;49.548;11.926;2023-08-08T06:19:05;6.33;;;1.60;;
21697;SDS011;11010;49.548;11.926;2023-08-08T06:21:33;5.00;;;1.33;;
21697;SDS011;11010;49.548;11.926;2023-08-08T06:24:01;6.87;;;1.50;;
21697;SDS011;11010;49.548;11.926;2023-08-08T06:26:29;6.67;;;1.57;;
21697;SDS011;11010;49.548;11.926;2023-08-08T06:28:56;6.80;;;1.70;;
21697;SDS011;11010;49.548;11.926;2023-08-08T06:31:24;6.13;;;1.60;;
21697;SDS011;11010;49.548;11.926;2023-08-08T06:33:51;7.50;;;1.50;;
21697;SDS011;11010;49.548;11.926;2023-08-08T06:36:20;6.03;;;1.50;;
21697;SDS011;11010;49.548;11.926;2023-08-08T06:38:47;5.87;;;1.60;;
21697;SDS011;11010;49.548;11.926;2023-08-08T06:41:15;7.30;;;1.80;;
21697;SDS011;11010;49.548;11.926;2023-08-08T06:43:42;5.23;;;1.50;;
21697;SDS011;11010;49.548;11.926;2023-08-08T06:46:09;6.90;;;1.47;;
21697;SDS011;11010;49.548;11.926;2023-08-08T06:48:37;6.63;;;1.70;;
21697;SDS011;11010;49.548;11.926;2023-08-08T06:51:04;6.97;;;1.70;;
21697;SDS011;11010;49.548;11.926;2023-08-08T06:53:32;6.50;;;1.60;;
21697;SDS011;11010;49.548;11.926;2023-08-08T06:55:59;7.90;;;1.80;;
21697;SDS011;11010;49.548;11.926;2023-08-08T06:58:27;6.87;;;1.50;;
21697;SDS011;11010;49.548;11.926;2023-08-08T07:00:54;8.77;;;1.70;;
21697;SDS011;11010;49.548;11.926;2023-08-08T07:03:21;6.40;;;1.67;;
21697;SDS011;11010;49.548;11.926;2023-08-08T07:05:49;6.40;;;1.80;;
21697;SDS011;11010;49.548;11.926;2023-08-08T07:08:18;5.90;;;1.40;;
21697;SDS011;11010;49.548;11.926;2023-08-08T07:10:46;6.33;;;1.70;;
21697;SDS011;11010;49.548;11.926;2023-08-08T07:13:14;7.27;;;1.53;;
21697;SDS011;11010;49.548;11.926;2023-08-08T07:15:42;4.57;;;1.27;;
21697;SDS011;11010;49.548;11.926;2023-08-08T07:18:09;5.37;;;1.50;;
21697;SDS011;11010;49.548;11.926;2023-08-08T07:20:37;6.87;;;1.63;;
21697;SDS011;11010;49.548;11.926;2023-08-08T07:23:05;4.77;;;1.40;;
21697;SDS011;11010;49.548;11.926;2023-08-08T07:25:33;5.90;;;1.50;;
21697;SDS011;11010;49.548;11.926;2023-08-08T07:28:01;6.00;;;1.50;;
21697;SDS011;11010;49.548;11.926;2023-08-08T07:30:29;6.47;;;1.80;;
21697;SDS011;11010;49.548;11.926;2023-08-08T07:32:56;6.43;;;1.60;;
21697;SDS011;11010;49.548;11.926;2023-08-08T07:35:24;6.33;;;1.53;;
21697;SDS011;11010;49.548;11.926;2023-08-08T07:37:51;6.83;;;1.50;;
21697;SDS011;11010;49.548;11.926;2023-08-08T07:40:19;5.57;;;1.40;;
21697;SDS011;11010;49.548;11.926;2023-08-08T07:42:47;5.97;;;1.63;;
21697;SDS011;11010;49.548;11.926;2023-08-08T07:45:15;6.20;;;1.50;;
21697;SDS011;11010;49.548;11.926;2023-08-08T07:47:42;6.30;;;1.70;;
21697;SDS011;11010;49.548;11.926;2023-08-08T07:50:10;6.50;;;1.60;;
21697;SDS011;11010;49.548;11.926;2023-08-08T07:52:38;5.83;;;1.60;;
21697;SDS011;11010;49.548;11.926;2023-08-08T07:55:05;6.43;;;1.53;;
21697;SDS011;11010;49.548;11.926;2023-08-08T07:57:33;5.07;;;1.37;;
21697;SDS011;11010;49.548;11.926;2023-08-08T08:00:02;8.23;;;1.70;;
21697;SDS011;11010;49.548;11.926;2023-08-08T08:02:37;6.13;;;1.43;;
21697;SDS011;11010;49.548;11.926;2023-08-08T08:05:05;5.90;;;1.50;;
21697;SDS011;11010;49.548;11.926;2023-08-08T08:07:34;6.70;;;1.60;;
21697;SDS011;11010;49.548;11.926;2023-08-08T08:10:02;4.30;;;1.20;;
21697;SDS011;11010;49.548;11.926;2023-08-08T08:12:30;5.17;;;1.50;;
21697;SDS011;11010;49.548;11.926;2023-08-08T08:14:58;5.53;;;1.40;;
21697;SDS011;11010;49.548;11.926;2023-08-08T08:17:26;6.80;;;1.80;;
21697;SDS011;11010;49.548;11.926;2023-08-08T08:19:54;7.30;;;1.47;;
21697;SDS011;11010;49.548;11.926;2023-08-08T08:22:22;7.53;;;1.80;;
21697;SDS011;11010;49.548;11.926;2023-08-08T08:24:51;4.93;;;1.30;;
21697;SDS011;11010;49.548;11.926;2023-08-08T08:27:19;6.33;;;1.37;;
21697;SDS011;11010;49.548;11.926;2023-08-08T08:29:46;5.60;;;1.43;;
21697;SDS011;11010;49.548;11.926;2023-08-08T08:32:13;5.17;;;1.40;;
21697;SDS011;11010;49.548;11.926;2023-08-08T08:34:41;5.60;;;1.43;;
21697;SDS011;11010;49.548;11.926;2023-08-08T08:37:08;6.87;;;1.57;;
21697;SDS011;11010;49.548;11.926;2023-08-08T08:39:36;4.67;;;1.30;;
21697;SDS011;11010;49.548;11.926;2023-08-08T08:42:03;3.53;;;1.20;;
21697;SDS011;11010;49.548;11.926;2023-08-08T08:44:32;6.90;;;1.50;;
21697;SDS011;11010;49.548;11.926;2023-08-08T08:47:02;7.40;;;1.40;;
21697;SDS011;11010;49.548;11.926;2023-08-08T08:49:31;6.77;;;1.80;;
21697;SDS011;11010;49.548;11.926;2023-08-08T08:51:59;6.40;;;1.90;;
21697;SDS011;11010;49.548;11.926;2023-08-08T08:54:32;5.63;;;1.40;;
21697;SDS011;11010;49.548;11.926;2023-08-08T08:56:59;7.30;;;1.47;;
21697;SDS011;11010;49.548;11.926;2023-08-08T08:59:27;5.63;;;1.37;;
21697;SDS011;11010;49.548;11.926;2023-08-08T09:01:54;5.03;;;1.33;;
21697;SDS011;11010;49.548;11.926;2023-08-08T09:04:22;6.07;;;1.43;;
21697;SDS011;11010;49.548;11.926;2023-08-08T09:06:50;4.70;;;1.20;;
21697;SDS011;11010;49.548;11.926;2023-08-08T09:09:18;5.77;;;1.30;;
21697;SDS011;11010;49.548;11.926;2023-08-08T09:11:52;5.77;;;1.40;;
21697;SDS011;11010;49.548;11.926;2023-08-08T09:14:23;4.77;;;1.30;;
21697;SDS011;11010;49.548;11.926;2023-08-08T09:16:52;3.07;;;0.93;;
21697;SDS011;11010;49.548;11.926;2023-08-08T09:19:20;5.33;;;1.30;;
21697;SDS011;11010;49.548;11.926;2023-08-08T09:21:48;7.10;;;1.50;;
21697;SDS011;11010;49.548;11.926;2023-08-08T09:24:16;6.07;;;1.13;;
21697;SDS011;11010;49.548;11.926;2023-08-08T09:26:44;5.53;;;1.17;;
21697;SDS011;11010;49.548;11.926;2023-08-08T09:29:12;4.63;;;1.10;;
21697;SDS011;11010;49.548;11.926;2023-08-08T09:31:41;5.77;;;1.30;;
21697;SDS011;11010;49.548;11.926;2023-08-08T09:34:08;5.27;;;1.40;;
21697;SDS011;11010;49.548;11.926;2023-08-08T09:36:36;4.87;;;1.30;;
21697;SDS011;11010;49.548;11.926;2023-08-08T09:39:04;5.20;;;1.30;;
21697;SDS011;11010;49.548;11.926;2023-08-08T09:41:31;5.23;;;1.23;;
21697;SDS011;11010;49.548;11.926;2023-08-08T09:43:59;4.97;;;1.10;;
21697;SDS011;11010;49.548;11.926;2023-08-08T09:46:28;6.63;;;1.30;;
21697;SDS011;11010;49.548;11.926;2023-08-08T09:48:56;5.63;;;1.40;;
21697;SDS011;11010;49.548;11.926;2023-08-08T09:51:24;5.57;;;1.50;;
21697;SDS011;11010;49.548;11.926;2023-08-08T09:53:53;6.37;;;1.23;;
21697;SDS011;11010;49.548;11.926;2023-08-08T09:56:21;6.20;;;1.30;;
21697;SDS011;11010;49.548;11.926;2023-08-08T09:58:50;6.40;;;1.23;;
21697;SDS011;11010;49.548;11.926;2023-08-08T10:01:21;5.63;;;1.30;;
21697;SDS011;11010;49.548;11.926;2023-08-08T10:03:51;4.57;;;1.03;;
21697;SDS011;11010;49.548;11.926;2023-08-08T10:06:19;4.70;;;1.20;;
21697;SDS011;11010;49.548;11.926;2023-08-08T10:08:46;4.97;;;1.23;;
21697;SDS011;11010;49.548;11.926;2023-08-08T10:11:14;6.60;;;1.40;;
21697;SDS011;11010;49.548;11.926;2023-08-08T10:13:48;5.53;;;1.40;;
21697;SDS011;11010;49.548;11.926;2023-08-08T10:16:16;5.40;;;1.27;;
21697;SDS011;11010;49.548;11.926;2023-08-08T10:18:55;6.23;;;1.40;;
21697;SDS011;11010;49.548;11.926;2023-08-08T10:21:24;6.17;;;1.40;;
21697;SDS011;11010;49.548;11.926;2023-08-08T10:24:02;6.57;;;1.60;;
21697;SDS011;11010;49.548;11.926;2023-08-08T10:26:30;4.32;;;1.02;;
21697;SDS011;11010;49.548;11.926;2023-08-08T10:28:58;7.25;;;1.20;;
21697;SDS011;11010;49.548;11.926;2023-08-08T10:31:26;6.78;;;1.50;;
21697;SDS011;11010;49.548;11.926;2023-08-08T10:34:04;5.20;;;1.10;;
21697;SDS011;11010;49.548;11.926;2023-08-08T10:36:44;5.72;;;1.30;;
21697;SDS011;11010;49.548;11.926;2023-08-08T10:39:15;6.00;;;1.10;;
21697;SDS011;11010;49.548;11.926;2023-08-08T10:41:50;3.95;;;1.10;;
21697;SDS011;11010;49.548;11.926;2023-08-08T10:44:21;3.88;;;1.00;;
21697;SDS011;11010;49.548;11.926;2023-08-08T10:46:50;6.10;;;1.40;;
21697;SDS011;11010;49.548;11.926;2023-08-08T10:49:18;6.45;;;1.20;;
21697;SDS011;11010;49.548;11.926;2023-08-08T10:51:47;3.67;;;1.02;;
21697;SDS011;11010;49.548;11.926;2023-08-08T10:54:24;3.08;;;0.90;;
21697;SDS011;11010;49.548;11.926;2023-08-08T10:56:57;4.95;;;1.10;;
21697;SDS011;11010;49.548;11.926;2023-08-08T10:59:26;5.22;;;1.10;;
21697;SDS011;11010;49.548;11.926;2023-08-08T11:01:54;6.25;;;1.27;;
21697;SDS011;11010;49.548;11.926;2023-08-08T11:04:23;4.93;;;1.23;;
21697;SDS011;11010;49.548;11.926;2023-08-08T11:06:53;5.97;;;1.10;;
21697;SDS011;11010;49.548;11.926;2023-08-08T11:09:21;6.50;;;1.20;;
21697;SDS011;11010;49.548;11.926;2023-08-08T11:11:49;3.72;;;1.00;;
21697;SDS011;11010;49.548;11.926;2023-08-08T11:14:17;5.20;;;1.10;;
21697;SDS011;11010;49.548;11.926;2023-08-08T11:16:44;7.03;;;1.35;;
21697;SDS011;11010;49.548;11.926;2023-08-08T11:19:12;5.22;;;1.35;;
21697;SDS011;11010;49.548;11.926;2023-08-08T11:21:41;4.80;;;1.17;;
21697;SDS011;11010;49.548;11.926;2023-08-08T11:24:09;7.50;;;1.30;;
21697;SDS011;11010;49.548;11.926;2023-08-08T11:26:39;4.32;;;1.00;;
21697;SDS011;11010;49.548;11.926;2023-08-08T11:29:06;3.65;;;0.93;;
21697;SDS011;11010;49.548;11.926;2023-08-08T11:31:34;6.93;;;1.33;;
21697;SDS011;11010;49.548;11.926;2023-08-08T11:34:02;4.15;;;1.10;;
21697;SDS011;11010;49.548;11.926;2023-08-08T11:36:31;3.63;;;1.00;;
21697;SDS011;11010;49.548;11.926;2023-08-08T11:39:00;6.13;;;1.27;;
21697;SDS011;11010;49.548;11.926;2023-08-08T11:41:34;2.83;;;0.93;;
21697;SDS011;11010;49.548;11.926;2023-08-08T11:44:05;5.22;;;1.10;;
21697;SDS011;11010;49.548;11.926;2023-08-08T11:46:42;3.85;;;1.00;;
21697;SDS011;11010;49.548;11.926;2023-08-08T11:49:10;4.90;;;1.15;;
21697;SDS011;11010;49.548;11.926;2023-08-08T11:51:37;5.13;;;1.17;;
21697;SDS011;11010;49.548;11.926;2023-08-08T11:54:05;5.80;;;1.23;;
21697;SDS011;11010;49.548;11.926;2023-08-08T11:56:33;3.33;;;1.00;;
21697;SDS011;11010;49.548;11.926;2023-08-08T11:59:01;5.28;;;1.20;;
21697;SDS011;11010;49.548;11.926;2023-08-08T12:01:30;4.50;;;1.00;;
21697;SDS011;11010;49.548;11.926;2023-08-08T12:03:57;5.00;;;1.15;;
21697;SDS011;11010;49.548;11.926;2023-08-08T12:06:27;5.57;;;1.20;;
21697;SDS011;11010;49.548;11.926;2023-08-08T12:08:55;5.43;;;1.10;;
21697;SDS011;11010;49.548;11.926;2023-08-08T12:11:23;4.88;;;1.20;;
21697;SDS011;11010;49.548;11.926;2023-08-08T12:13:57;5.03;;;1.00;;
21697;SDS011;11010;49.548;11.926;2023-08-08T12:16:27;5.90;;;1.13;;
21697;SDS011;11010;49.548;11.926;2023-08-08T12:19:02;2.38;;;0.80;;
21697;SDS011;11010;49.548;11.926;2023-08-08T12:21:30;5.85;;;1.10;;
21697;SDS011;11010;49.548;11.926;2023-08-08T12:23:59;5.35;;;1.20;;
21697;SDS011;11010;49.548;11.926;2023-08-08T12:26:27;4.80;;;1.00;;
21697;SDS011;11010;49.548;11.926;2023-08-08T12:28:54;4.28;;;1.05;;
21697;SDS011;11010;49.548;11.926;2023-08-08T12:31:22;5.38;;;1.30;;
21697;SDS011;11010;49.548;11.926;2023-08-08T12:33:49;5.30;;;1.20;;
21697;SDS011;11010;49.548;11.926;2023-08-08T12:36:19;5.35;;;1.20;;
21697;SDS011;11010;49.548;11.926;2023-08-08T12:38:46;3.20;;;0.77;;
21697;SDS011;11010;49.548;11.926;2023-08-08T12:41:14;4.13;;;1.08;;
21697;SDS011;11010;49.548;11.926;2023-08-08T12:43:41;4.22;;;1.10;;
21697;SDS011;11010;49.548;11.926;2023-08-08T12:46:08;5.57;;;1.35;;
21697;SDS011;11010;49.548;11.926;2023-08-08T12:48:36;3.42;;;1.00;;
21697;SDS011;11010;49.548;11.926;2023-08-08T12:51:03;6.43;;;1.23;;
21697;SDS011;11010;49.548;11.926;2023-08-08T12:53:31;5.05;;;1.10;;
21697;SDS011;11010;49.548;11.926;2023-08-08T12:55:58;5.50;;;1.23;;
21697;SDS011;11010;49.548;11.926;2023-08-08T12:58:26;5.63;;;1.25;;
21697;SDS011;11010;49.548;11.926;2023-08-08T13:00:53;6.13;;;1.17;;
21697;SDS011;11010;49.548;11.926;2023-08-08T13:03:21;6.88;;;1.30;;
21697;SDS011;11010;49.548;11.926;2023-08-08T13:05:48;4.85;;;0.98;;
21697;SDS011;11010;49.548;11.926;2023-08-08T13:08:15;4.75;;;1.20;;
21697;SDS011;11010;49.548;11.926;2023-08-08T13:10:43;5.07;;;1.13;;
21697;SDS011;11010;49.548;11.926;2023-08-08T13:13:10;6.40;;;1.25;;
21697;SDS011;11010;49.548;11.926;2023-08-08T13:15:38;4.70;;;1.20;;
21697;SDS011;11010;49.548;11.926;2023-08-08T13:18:05;4.68;;;1.15;;
21697;SDS011;11010;49.548;11.926;2023-08-08T13:20:33;4.88;;;1.20;;
21697;SDS011;11010;49.548;11.926;2023-08-08T13:23:00;5.53;;;1.23;;
21697;SDS011;11010;49.548;11.926;2023-08-08T13:25:30;5.28;;;1.17;;
21697;SDS011;11010;49.548;11.926;2023-08-08T13:28:01;5.75;;;1.30;;
21697;SDS011;11010;49.548;11.926;2023-08-08T13:30:29;5.85;;;1.35;;
21697;SDS011;11010;49.548;11.926;2023-08-08T13:32:57;5.25;;;1.35;;
21697;SDS011;11010;49.548;11.926;2023-08-08T13:35:28;2.53;;;0.82;;
21697;SDS011;11010;49.548;11.926;2023-08-08T13:37:56;4.55;;;1.20;;
21697;SDS011;11010;49.548;11.926;2023-08-08T13:40:24;5.65;;;1.20;;
21697;SDS011;11010;49.548;11.926;2023-08-08T13:42:51;5.72;;;1.30;;
21697;SDS011;11010;49.548;11.926;2023-08-08T13:45:20;5.40;;;1.23;;
21697;SDS011;11010;49.548;11.926;2023-08-08T13:47:48;5.03;;;1.20;;
21697;SDS011;11010;49.548;11.926;2023-08-08T13:50:17;5.30;;;1.25;;
21697;SDS011;11010;49.548;11.926;2023-08-08T13:52:44;5.30;;;1.30;;
21697;SDS011;11010;49.548;11.926;2023-08-08T13:55:12;5.25;;;1.25;;
21697;SDS011;11010;49.548;11.926;2023-08-08T13:57:39;4.95;;;1.30;;
21697;SDS011;11010;49.548;11.926;2023-08-08T14:00:07;5.75;;;1.38;;
21697;SDS011;11010;49.548;11.926;2023-08-08T14:02:37;4.97;;;1.10;;
21697;SDS011;11010;49.548;11.926;2023-08-08T14:05:05;5.95;;;1.40;;
21697;SDS011;11010;49.548;11.926;2023-08-08T14:07:33;5.03;;;1.25;;
21697;SDS011;11010;49.548;11.926;2023-08-08T14:10:01;4.43;;;1.10;;
21697;SDS011;11010;49.548;11.926;2023-08-08T14:12:30;5.35;;;1.25;;
21697;SDS011;11010;49.548;11.926;2023-08-08T14:14:57;6.05;;;1.30;;
21697;SDS011;11010;49.548;11.926;2023-08-08T14:17:25;3.63;;;0.88;;
21697;SDS011;11010;49.548;11.926;2023-08-08T14:19:53;4.93;;;1.20;;
21697;SDS011;11010;49.548;11.926;2023-08-08T14:22:20;5.55;;;1.25;;
21697;SDS011;11010;49.548;11.926;2023-08-08T14:24:47;2.72;;;0.90;;
21697;SDS011;11010;49.548;11.926;2023-08-08T14:27:15;3.33;;;1.00;;
21697;SDS011;11010;49.548;11.926;2023-08-08T14:29:43;5.70;;;1.20;;
21697;SDS011;11010;49.548;11.926;2023-08-08T14:32:10;5.68;;;1.30;;
21697;SDS011;11010;49.548;11.926;2023-08-08T14:34:38;6.63;;;1.30;;
21697;SDS011;11010;49.548;11.926;2023-08-08T14:37:05;5.50;;;1.30;;
21697;SDS011;11010;49.548;11.926;2023-08-08T14:39:33;4.10;;;1.10;;
21697;SDS011;11010;49.548;11.926;2023-08-08T14:42:01;4.25;;;1.10;;